Time;durP1;ratioP1;P1;durP2;ratioP2;P2;SDS_P1;SDS_P2;PMS_P1;PMS_P2;Temp;Humidity;BMP_temperature;BMP_pressure;BME280_temperature;BME280_humidity;BME280_pressure;Samples;Min_cycle;Max_cycle;Signal;HPM_P1;HPM_P2
2022/09/15 00:01:08;;;;;;;13.93;4.68;;;;;;;18.28;59.99;95043.66;4960906;28;20122;-79
2022/09/15 00:03:33;;;;;;;12.05;4.85;;;;;;;18.32;59.42;95022.28;4958641;28;20054;-80
2022/09/15 00:05:59;;;;;;;9.13;3.95;;;;;;;18.93;59.35;95111.34;4959478;28;20101;-80
2022/09/15 00:08:25;;;;;;;12.07;4.60;;;;;;;18.98;59.20;95111.16;4959223;28;20050;-80
2022/09/15 00:11:05;;;;;;;15.30;4.72;;;;;;;18.89;58.86;95108.53;4959248;28;20101;-80
2022/09/15 00:13:32;;;;;;;14.48;4.97;;;;;;;18.27;58.31;94998.34;4959060;28;20047;-80
2022/09/15 00:15:57;;;;;;;12.50;4.45;;;;;;;18.76;58.39;95070.06;4959396;28;20054;-80
2022/09/15 00:18:23;;;;;;;12.27;4.35;;;;;;;18.60;58.91;95054.84;4958907;28;20057;-80
2022/09/15 00:20:49;;;;;;;14.50;4.65;;;;;;;18.54;58.56;95045.41;4960614;28;20123;-80
2022/09/15 00:23:15;;;;;;;10.73;4.38;;;;;;;18.49;58.40;95038.28;4959215;28;20125;-80
2022/09/15 00:25:46;;;;;;;13.40;4.93;;;;;;;18.88;58.35;95096.22;4959026;28;20039;-80
2022/09/15 00:28:13;;;;;;;11.63;3.85;;;;;;;18.95;58.10;95117.19;4960794;28;20038;-80
2022/09/15 00:30:44;;;;;;;11.40;4.93;;;;;;;18.23;59.18;95048.44;4958996;28;20076;-80
2022/09/15 00:33:11;;;;;;;11.25;4.47;;;;;;;18.84;58.68;95111.41;4959016;28;20046;-80
2022/09/15 00:35:39;;;;;;;12.38;4.30;;;;;;;18.63;59.46;95097.16;4958517;28;20051;-80
2022/09/15 00:38:05;;;;;;;13.50;4.03;;;;;;;18.76;59.11;95098.84;4961007;28;20481;-80
2022/09/15 00:40:31;;;;;;;13.20;4.88;;;;;;;18.32;59.01;95033.03;4960358;28;20039;-80
2022/09/15 00:42:56;;;;;;;7.50;4.47;;;;;;;18.06;58.87;94998.31;4958672;28;20791;-80
2022/09/15 00:45:22;;;;;;;7.80;4.10;;;;;;;17.91;59.69;95013.06;4958623;28;20047;-80
2022/09/15 00:47:47;;;;;;;17.80;5.00;;;;;;;18.17;59.51;95050.50;4958491;28;20049;-80
2022/09/15 00:50:17;;;;;;;15.98;4.88;;;;;;;18.12;59.27;95034.59;4960458;28;20111;-80
2022/09/15 00:52:59;;;;;;;14.00;4.28;;;;;;;18.66;59.51;95120.69;4960209;28;20074;-80
2022/09/15 00:55:46;;;;;;;11.32;5.13;;;;;;;18.61;59.39;95118.22;4959979;28;20042;-80
2022/09/15 00:58:26;;;;;;;8.38;5.18;;;;;;;18.19;60.16;95077.00;4954316;28;20050;-80
2022/09/15 01:00:56;;;;;;;13.00;4.73;;;;;;;17.74;60.88;95027.34;4958524;28;20039;-80
2022/09/15 01:03:24;;;;;;;11.52;5.18;;;;;;;17.81;60.59;95032.19;4959558;28;20050;-80
2022/09/15 01:05:55;;;;;;;14.43;5.35;;;;;;;17.80;60.19;95014.53;4959932;28;20047;-80
2022/09/15 01:09:03;;;;;;;12.55;5.22;;;;;;;18.48;60.09;95109.22;4960140;28;20049;-80
2022/09/15 01:11:29;;;;;;;14.98;4.50;;;;;;;17.75;60.47;95030.81;4916409;29;20056;-80
2022/09/15 01:13:54;;;;;;;12.07;4.82;;;;;;;17.74;60.25;95011.25;4949403;28;20519;-80
2022/09/15 01:16:59;;;;;;;13.23;5.72;;;;;;;17.94;60.15;95035.75;4959914;28;20054;-80
2022/09/15 01:19:58;;;;;;;20.73;5.10;;;;;;;17.91;60.38;95050.63;4959946;28;20043;-81
2022/09/15 01:23:00;;;;;;;12.43;5.30;;;;;;;17.87;59.66;95041.63;4959194;28;20126;-81
2022/09/15 01:25:55;;;;;;;13.35;4.68;;;;;;;18.17;59.77;95087.28;4957705;28;20042;-81
2022/09/15 01:28:52;;;;;;;12.35;4.78;;;;;;;17.87;59.37;95040.84;4928080;28;20138;-80
2022/09/15 01:34:49;;;;;;;26.27;5.70;;;;;;;18.39;59.36;95097.75;4951895;28;20113;-81
2022/09/15 01:37:23;;;;;;;14.00;4.97;;;;;;;17.64;60.11;95027.69;4973676;28;20050;-81
2022/09/15 01:39:51;;;;;;;8.35;5.35;;;;;;;17.60;60.00;94999.94;4973875;28;20496;-81
2022/09/15 01:42:18;;;;;;;13.93;5.70;;;;;;;17.12;60.13;94943.94;4958902;28;20829;-80
2022/09/15 01:44:53;;;;;;;14.20;5.38;;;;;;;17.97;60.59;95080.75;4957254;28;20473;-81
2022/09/15 01:47:21;;;;;;;9.20;4.78;;;;;;;17.96;60.12;95074.59;4958618;28;20073;-81
2022/09/15 01:49:56;;;;;;;12.57;4.82;;;;;;;17.72;59.90;95021.50;4959125;28;20077;-81
2022/09/15 01:52:23;;;;;;;9.18;5.25;;;;;;;18.29;59.86;95108.88;4959217;28;20034;-81
2022/09/15 01:55:00;;;;;;;16.55;4.97;;;;;;;18.27;60.03;95108.41;4958752;28;20535;-81
2022/09/15 01:57:26;;;;;;;13.50;4.95;;;;;;;17.58;59.99;94991.41;4973134;28;20045;-80
2022/09/15 01:59:54;;;;;;;13.55;5.35;;;;;;;18.23;60.35;95104.78;4959650;28;20125;-80
2022/09/15 02:02:25;;;;;;;12.98;5.35;;;;;;;17.40;60.57;94975.69;4957218;28;20042;-80
2022/09/15 02:05:00;;;;;;;;;;;;;;;18.22;60.54;95101.31;4950283;28;20050;-80
2022/09/15 02:07:35;;;;;;;17.27;5.35;;;;;;;17.86;60.42;95052.69;4958894;28;19925;-80
2022/09/15 02:10:10;;;;;;;8.02;5.03;;;;;;;17.32;60.57;94985.34;4951205;28;20047;-80
2022/09/15 02:13:10;;;;;;;14.38;5.20;;;;;;;18.05;60.58;95093.34;4959055;28;20070;-80
2022/09/15 02:15:58;;;;;;;13.55;5.22;;;;;;;17.57;61.16;95046.13;4944039;28;20179;-80
2022/09/15 02:18:44;;;;;;;15.00;5.93;;;;;;;17.94;61.31;95090.22;4954807;28;20483;-80
2022/09/15 02:21:18;;;;;;;14.25;5.45;;;;;;;18.04;60.68;95091.75;4953032;28;20517;-80
2022/09/15 02:23:49;;;;;;;14.25;4.97;;;;;;;17.98;60.45;95074.28;4958287;28;20047;-80
2022/09/15 02:26:20;;;;;;;13.77;5.00;;;;;;;17.38;60.29;95005.53;4953957;28;20481;-80
2022/09/15 02:28:48;;;;;;;9.18;4.97;;;;;;;17.49;60.54;95012.09;4959060;28;20043;-80
2022/09/15 02:31:16;;;;;;;8.40;4.63;;;;;;;17.45;60.60;95007.72;4952947;28;20046;-80
2022/09/15 02:33:56;;;;;;;9.20;5.05;;;;;;;17.54;61.36;95037.97;4958058;28;20527;-80
2022/09/15 02:36:24;;;;;;;19.20;5.72;;;;;;;17.33;61.58;95027.13;4954331;28;20050;-80
2022/09/15 02:38:57;;;;;;;12.77;4.93;;;;;;;17.00;61.39;94946.50;4950202;28;20094;-80
2022/09/15 02:41:23;;;;;;;12.13;5.60;;;;;;;17.76;61.16;95058.44;4956983;28;20041;-80
2022/09/15 02:43:49;;;;;;;7.65;4.80;;;;;;;17.93;61.35;95074.44;4949966;28;20054;-80
2022/09/15 02:46:18;;;;;;;13.38;5.30;;;;;;;16.93;61.80;94957.72;4956450;28;20154;-80
2022/09/15 02:48:43;;;;;;;17.35;4.68;;;;;;;17.03;61.02;94948.53;4950901;28;20042;-80
2022/09/15 02:51:09;;;;;;;13.02;5.53;;;;;;;17.34;60.78;94996.53;4967256;28;20390;-80
2022/09/15 02:53:35;;;;;;;17.25;5.82;;;;;;;17.43;60.80;95005.34;4956447;28;20089;-80
2022/09/15 02:56:01;;;;;;;16.70;5.32;;;;;;;17.75;61.26;95073.72;4956179;28;20042;-80
2022/09/15 02:58:27;;;;;;;17.35;5.80;;;;;;;17.82;61.37;95084.75;4956829;28;20046;-80
2022/09/15 03:00:54;;;;;;;17.65;5.32;;;;;;;17.55;61.17;95042.97;4958337;28;20035;-80
2022/09/15 03:03:20;;;;;;;15.85;5.22;;;;;;;17.27;60.92;94988.97;4957971;28;20495;-80
2022/09/15 03:05:46;;;;;;;16.80;5.28;;;;;;;17.24;61.05;95004.94;4948563;28;20105;-81
2022/09/15 03:08:12;;;;;;;9.20;4.97;;;;;;;17.70;60.97;95087.28;4956764;28;20072;-80
2022/09/15 03:10:37;;;;;;;6.35;4.53;;;;;;;17.41;61.42;95060.38;4960618;28;20042;-80
2022/09/15 03:13:03;;;;;;;13.25;5.20;;;;;;;16.81;60.86;95018.38;4955452;28;20054;-80
2022/09/15 03:15:28;;;;;;;12.70;5.05;;;;;;;17.02;61.19;95023.84;4961856;28;20046;-80
2022/09/15 03:17:54;;;;;;;15.45;5.10;;;;;;;17.13;60.93;95019.75;4953968;28;20057;-80
2022/09/15 03:20:22;;;;;;;13.65;4.90;;;;;;;16.94;60.71;95001.34;4976898;28;20050;-80
2022/09/15 03:22:48;;;;;;;19.83;4.80;;;;;;;17.63;60.86;95114.59;4953257;28;20053;-80
2022/09/15 03:25:15;;;;;;;14.38;5.25;;;;;;;17.67;61.15;95114.75;4960385;28;20047;-80
2022/09/15 03:27:41;;;;;;;9.43;4.53;;;;;;;17.38;62.12;95120.78;4959832;28;20050;-80
2022/09/15 03:30:07;;;;;;;11.63;5.38;;;;;;;17.10;61.61;95042.59;4955470;28;20051;-80
2022/09/15 03:32:33;;;;;;;13.00;5.22;;;;;;;17.54;61.60;95113.03;4958924;28;20086;-81
2022/09/15 03:34:59;;;;;;;12.00;5.00;;;;;;;16.69;61.89;94989.56;4955482;28;20046;-80
2022/09/15 03:37:25;;;;;;;19.52;5.03;;;;;;;17.51;61.95;95119.81;4959956;28;20110;-80
2022/09/15 03:39:50;;;;;;;22.55;5.28;;;;;;;17.15;61.56;95050.50;4959928;28;20624;-80
2022/09/15 03:42:16;;;;;;;15.82;5.40;;;;;;;16.88;61.18;95003.41;4976106;28;20042;-80
2022/09/15 03:44:41;;;;;;;13.77;4.70;;;;;;;17.16;61.23;95046.72;4961000;28;20074;-80
2022/09/15 03:47:07;;;;;;;14.73;5.43;;;;;;;17.47;61.57;95091.28;4954806;28;20062;-81
2022/09/15 03:49:32;;;;;;;16.45;5.07;;;;;;;16.75;61.63;94990.19;4961277;28;20421;-80
2022/09/15 03:51:58;;;;;;;15.50;5.68;;;;;;;17.45;61.35;95090.81;4960774;28;20217;-80
2022/09/15 03:54:26;;;;;;;15.63;5.47;;;;;;;17.48;61.60;95107.03;4961342;28;20468;-80
2022/09/15 03:56:52;;;;;;;21.42;6.13;;;;;;;17.42;62.07;95102.94;4952796;28;20718;-80
2022/09/15 03:59:19;;;;;;;10.80;4.88;;;;;;;16.98;62.49;95045.16;4956608;28;20042;-80
2022/09/15 04:01:46;;;;;;;17.05;6.70;;;;;;;17.17;61.99;95060.88;4973859;28;20589;-80
2022/09/15 04:04:12;;;;;;;17.63;5.32;;;;;;;16.64;62.35;95000.41;4953375;28;20035;-80
2022/09/15 04:06:37;;;;;;;19.13;5.97;;;;;;;17.15;62.92;95100.63;4975601;28;20194;-80
2022/09/15 04:09:03;;;;;;;18.85;5.43;;;;;;;17.07;62.49;95080.78;4950172;28;20536;-80
2022/09/15 04:11:29;;;;;;;14.15;6.03;;;;;;;17.05;62.17;95066.09;4990170;28;20039;-79
2022/09/15 04:13:55;;;;;;;15.10;5.75;;;;;;;17.37;62.35;95116.53;4960066;28;20077;-79
2022/09/15 04:16:23;;;;;;;14.95;5.35;;;;;;;17.20;62.22;95079.81;4974441;28;20365;-79
2022/09/15 04:18:49;;;;;;;15.93;5.63;;;;;;;17.43;62.10;95109.88;4951165;28;20047;-79
2022/09/15 04:21:18;;;;;;;14.38;5.60;;;;;;;16.49;62.09;94971.41;4958230;28;20596;-80
2022/09/15 04:23:45;;;;;;;21.83;5.78;;;;;;;16.92;62.18;95033.03;4960030;28;20480;-79
2022/09/15 04:26:32;;;;;;;19.98;7.55;;;;;;;16.13;62.25;94905.63;4953802;28;20066;-79
2022/09/15 04:29:00;;;;;;;17.45;5.68;;;;;;;17.34;62.29;95096.50;4949314;28;20142;-80
2022/09/15 04:31:25;;;;;;;15.15;6.00;;;;;;;17.42;61.91;95099.47;4952859;28;20053;-79
2022/09/15 04:33:52;;;;;;;11.13;5.68;;;;;;;16.87;61.77;95009.06;4960543;28;20035;-79
2022/09/15 04:36:20;;;;;;;13.00;6.85;;;;;;;16.96;61.78;95029.38;4952766;28;20061;-80
2022/09/15 04:38:46;;;;;;;16.27;6.32;;;;;;;17.06;61.58;95049.72;4959566;28;20049;-80
2022/09/15 04:41:13;;;;;;;32.05;6.70;;;;;;;17.02;61.65;95026.53;4970233;28;20089;-80
2022/09/15 04:43:39;;;;;;;15.38;6.32;;;;;;;17.22;61.35;95058.06;4959208;28;20784;-80
2022/09/15 04:46:05;;;;;;;17.70;6.53;;;;;;;17.64;61.50;95113.50;4949489;28;20061;-79
2022/09/15 04:48:33;;;;;;;13.98;6.28;;;;;;;17.28;61.21;95068.28;4958233;28;20520;-79
2022/09/15 04:51:04;;;;;;;16.67;6.65;;;;;;;16.94;61.65;95004.81;4956757;28;20588;-79
2022/09/15 04:53:31;;;;;;;24.67;7.72;;;;;;;17.40;61.65;95059.59;4956896;28;20054;-80
2022/09/15 04:56:07;;;;;;;23.85;6.90;;;;;;;17.77;61.19;95106.38;4949391;28;20321;-80
2022/09/15 04:58:38;;;;;;;26.95;7.95;;;;;;;17.87;61.03;95110.59;4953453;28;20066;-80
2022/09/15 05:01:18;;;;;;;30.37;8.77;;;;;;;17.46;61.18;95052.97;4954651;28;20043;-79
2022/09/15 05:03:45;;;;;;;29.20;7.80;;;;;;;17.58;61.02;95054.97;4955505;28;20662;-79
2022/09/15 05:06:13;;;;;;;32.17;8.80;;;;;;;17.26;61.05;95003.50;4949853;28;20556;-79
2022/09/15 05:08:39;;;;;;;27.92;8.52;;;;;;;17.48;60.94;95034.66;4956101;28;20077;-79
2022/09/15 05:11:07;;;;;;;22.40;7.53;;;;;;;17.22;62.03;95012.50;4949941;28;20051;-80
2022/09/15 05:13:34;;;;;;;22.08;8.05;;;;;;;18.02;62.04;95110.06;4950888;28;20038;-79
2022/09/15 05:16:12;;;;;;;18.38;8.60;;;;;;;16.85;62.16;94917.56;4953559;28;20078;-80
2022/09/15 05:18:39;;;;;;;25.77;9.27;;;;;;;18.06;62.58;95102.97;4938729;28;20805;-80
2022/09/15 05:21:07;;;;;;;29.75;8.73;;;;;;;17.67;62.61;95039.69;4948210;28;20043;-80
2022/09/15 05:23:34;;;;;;;22.40;8.32;;;;;;;17.65;62.98;95036.53;4967160;28;20049;-81
2022/09/15 05:26:02;;;;;;;27.25;7.55;;;;;;;17.83;62.33;95039.94;4943744;28;20054;-81
2022/09/15 05:28:28;;;;;;;25.75;8.38;;;;;;;17.96;61.86;95053.13;4945588;28;20077;-81
2022/09/15 05:30:54;;;;;;;13.65;6.30;;;;;;;17.50;60.90;94962.72;4953547;28;20054;-81
2022/09/15 05:33:22;;;;;;;14.88;6.03;;;;;;;18.06;59.59;95054.66;4960930;28;20188;-80
2022/09/15 05:35:51;;;;;;;18.08;6.30;;;;;;;17.95;58.55;95013.19;4946946;28;20556;-80
2022/09/15 05:38:17;;;;;;;18.15;5.60;;;;;;;18.15;58.00;95031.25;4949417;28;20470;-81
2022/09/15 05:40:42;;;;;;;17.30;6.95;;;;;;;18.20;58.88;95023.00;4948035;28;20114;-80
2022/09/15 05:43:07;;;;;;;15.13;6.65;;;;;;;18.63;57.54;95086.41;4949201;28;20046;-80
2022/09/15 05:45:33;;;;;;;15.15;5.85;;;;;;;18.64;56.53;95083.41;4943817;28;20149;-81
2022/09/15 05:47:59;;;;;;;18.55;6.10;;;;;;;18.49;56.64;95052.50;4959980;28;20091;-80
2022/09/15 05:50:24;;;;;;;17.77;5.32;;;;;;;18.82;55.26;95073.34;4948980;28;20043;-80
2022/09/15 05:52:50;;;;;;;19.35;5.97;;;;;;;18.55;54.89;95030.81;4947738;28;20166;-81
2022/09/15 05:55:16;;;;;;;19.50;5.90;;;;;;;18.65;54.88;95023.22;4947346;28;20150;-81
2022/09/15 05:57:41;;;;;;;14.73;5.93;;;;;;;18.19;54.46;94942.81;4942625;28;20706;-84
2022/09/15 06:00:07;;;;;;;16.13;5.68;;;;;;;19.04;55.05;95064.94;4971545;28;20031;-82
2022/09/15 06:02:33;;;;;;;20.30;5.78;;;;;;;18.29;55.25;94927.13;4936877;28;20629;-83
2022/09/15 06:04:58;;;;;;;15.75;5.38;;;;;;;18.22;55.30;94921.50;4942177;28;20091;-83
2022/09/15 06:07:24;;;;;;;11.52;5.97;;;;;;;18.49;54.96;94950.47;4940862;28;20043;-81
2022/09/15 06:09:49;;;;;;;19.33;6.78;;;;;;;18.68;54.82;94978.81;4946904;28;20282;-80
2022/09/15 06:12:16;;;;;;;17.42;5.78;;;;;;;18.88;54.20;95005.63;4942122;28;20042;-82
2022/09/15 06:14:43;;;;;;;24.25;6.72;;;;;;;18.62;53.43;94969.34;4946182;28;20042;-81
2022/09/15 06:17:09;;;;;;;19.83;7.05;;;;;;;19.32;53.78;95073.22;4948633;28;20050;-81
2022/09/15 06:19:34;;;;;;;25.02;8.38;;;;;;;19.10;53.72;95044.81;4952388;28;20039;-81
2022/09/15 06:22:00;;;;;;;24.65;8.80;;;;;;;18.12;54.30;94898.50;4952563;28;20117;-81
2022/09/15 06:24:26;;;;;;;28.75;7.57;;;;;;;19.36;54.16;95068.75;4949550;28;20050;-81
2022/09/15 06:26:51;;;;;;;24.48;8.07;;;;;;;19.57;54.22;95082.97;4951400;28;20043;-83
2022/09/15 06:29:20;;;;;;;24.80;7.68;;;;;;;19.26;53.61;95001.97;4937979;28;20050;-82
2022/09/15 06:31:45;;;;;;;24.92;8.70;;;;;;;19.33;53.66;95010.25;4935048;28;20035;-81
2022/09/15 06:34:11;;;;;;;23.40;7.78;;;;;;;19.32;53.56;94995.25;4950719;28;20061;-83
2022/09/15 06:36:37;;;;;;;20.67;7.68;;;;;;;19.19;53.03;94989.06;4953590;28;20047;-83
2022/09/15 06:39:03;;;;;;;23.13;7.03;;;;;;;19.25;52.44;94971.59;4945949;28;20077;-83
2022/09/15 06:41:29;;;;;;;21.13;7.07;;;;;;;19.61;51.50;95040.81;4949898;28;20047;-83
2022/09/15 06:43:55;;;;;;;20.05;6.15;;;;;;;19.57;51.43;95013.03;4964590;28;20121;-85
2022/09/15 06:46:23;;;;;;;20.88;6.65;;;;;;;19.91;51.33;95062.19;4950004;28;20121;-83
2022/09/15 06:48:50;;;;;;;21.65;5.95;;;;;;;19.33;51.12;94958.38;4981228;28;20126;-84
2022/09/15 06:51:22;;;;;;;24.15;6.40;;;;;;;19.70;51.01;95069.53;4943194;28;20039;-81
2022/09/15 06:54:06;;;;;;;18.75;6.30;;;;;;;19.81;50.56;95044.56;4937872;28;22356;-82
2022/09/15 06:56:34;;;;;;;15.70;7.43;;;;;;;18.89;50.54;94910.47;4948938;28;20046;-80
2022/09/15 06:59:02;;;;;;;18.15;6.63;;;;;;;19.49;50.93;95000.47;4944602;28;20039;-80
2022/09/15 07:01:31;;;;;;;23.40;6.63;;;;;;;19.19;51.40;94999.03;4952684;28;20055;-81
2022/09/15 07:03:59;;;;;;;12.70;5.88;;;;;;;19.95;50.93;95087.31;4944730;28;20221;-80
2022/09/15 07:06:30;;;;;;;26.25;7.63;;;;;;;19.28;51.50;94997.03;4948158;28;20031;-80
2022/09/15 07:09:02;;;;;;;23.73;7.80;;;;;;;19.67;51.91;95068.31;4952107;28;20104;-79
2022/09/15 07:11:31;;;;;;;22.08;8.10;;;;;;;19.02;52.25;94956.97;4954156;28;21004;-80
2022/09/15 07:13:57;;;;;;;21.63;6.97;;;;;;;18.65;51.44;94923.81;4977688;28;20713;-80
2022/09/15 07:16:24;;;;;;;21.95;7.18;;;;;;;19.60;51.46;95089.59;4974587;28;20043;-80
2022/09/15 07:18:50;;;;;;;35.05;7.68;;;;;;;19.04;51.57;94973.56;4946262;28;20048;-80
2022/09/15 07:21:18;;;;;;;22.42;7.88;;;;;;;19.82;52.27;95102.66;4938909;28;20038;-80
2022/09/15 07:23:45;;;;;;;22.67;8.63;;;;;;;19.80;52.08;95102.19;4973803;28;20047;-80
2022/09/15 07:26:17;;;;;;;21.73;7.68;;;;;;;19.98;52.14;95127.81;4973715;28;20030;-80
2022/09/15 07:28:45;;;;;;;28.83;7.50;;;;;;;19.81;52.32;95105.69;4945875;28;20043;-80
2022/09/15 07:31:22;;;;;;;32.10;9.25;;;;;;;19.90;52.36;95136.78;4961536;28;20050;-80
2022/09/15 07:33:47;;;;;;;26.58;9.23;;;;;;;19.26;52.63;95023.47;4963065;28;20051;-80
2022/09/15 07:36:14;;;;;;;32.88;9.90;;;;;;;19.65;52.34;95075.94;4959191;28;20087;-80
2022/09/15 07:38:44;;;;;;;29.88;8.60;;;;;;;19.08;51.92;94979.81;4941287;28;20077;-80
2022/09/15 07:41:13;;;;;;;26.60;7.22;;;;;;;19.69;51.92;95079.50;4937716;28;20047;-80
2022/09/15 07:43:52;;;;;;;27.90;7.85;;;;;;;19.64;51.23;95036.69;4950579;28;20038;-81
2022/09/15 07:46:20;;;;;;;29.95;7.10;;;;;;;20.37;51.13;95120.22;4958264;28;20074;-81
2022/09/15 07:48:51;;;;;;;20.08;7.13;;;;;;;20.56;50.53;95127.75;4975108;28;20047;-84
2022/09/15 07:51:18;;;;;;;21.85;6.00;;;;;;;20.60;49.99;95090.91;4943909;28;20170;-84
2022/09/15 07:53:48;;;;;;;20.65;7.10;;;;;;;19.21;49.47;94862.38;4970205;28;20428;-89
2022/09/15 07:56:17;;;;;;;22.17;7.13;;;;;;;20.35;49.17;95022.84;4975971;28;20456;-80
2022/09/15 07:58:44;;;;;;;16.63;5.95;;;;;;;19.16;49.38;94841.09;4949668;28;21024;-81
2022/09/15 08:01:13;;;;;;;38.17;6.95;;;;;;;20.92;48.95;95097.28;4953647;28;20042;-83
2022/09/15 08:03:47;;;;;;;21.85;5.95;;;;;;;21.12;49.17;95118.69;4953545;28;20184;-80
2022/09/15 08:06:14;;;;;;;18.92;6.32;;;;;;;20.09;49.34;94963.16;4968978;28;20058;-82
2022/09/15 08:08:42;;;;;;;18.98;5.30;;;;;;;21.21;48.81;95107.78;4963609;28;20190;-81
2022/09/15 08:11:11;;;;;;;22.63;6.13;;;;;;;21.36;48.59;95104.34;4948411;28;20046;-81
2022/09/15 08:13:37;;;;;;;22.35;5.45;;;;;;;21.02;47.72;95053.69;4970467;28;20238;-82
2022/09/15 08:16:08;;;;;;;23.98;5.88;;;;;;;21.43;47.84;95104.56;4963727;28;20177;-82
2022/09/15 08:18:40;;;;;;;;;;;;;;;21.47;46.90;95107.34;4951912;28;20414;-81
2022/09/15 08:21:08;;;;;;;16.88;5.40;;;;;;;21.42;46.87;95072.53;4952665;28;19922;-81
2022/09/15 08:23:34;;;;;;;15.35;4.80;;;;;;;21.65;46.74;95097.06;4965353;28;20047;-81
2022/09/15 08:26:08;;;;;;;18.70;6.05;;;;;;;21.77;46.57;95100.47;4942225;28;20124;-83
2022/09/15 08:28:34;;;;;;;23.35;5.97;;;;;;;21.34;47.04;95020.31;4956831;28;20055;-82
2022/09/15 08:31:01;;;;;;;17.30;6.13;;;;;;;21.85;46.60;95069.03;4964378;28;20035;-82
2022/09/15 08:33:27;;;;;;;20.52;5.13;;;;;;;22.10;46.80;95086.69;4957072;28;20069;-81
2022/09/15 08:35:54;;;;;;;19.40;5.03;;;;;;;22.20;46.95;95082.69;4956043;28;20134;-83
2022/09/15 08:38:20;;;;;;;17.48;5.07;;;;;;;22.18;45.56;95076.84;4961406;28;20138;-81
2022/09/15 08:40:46;;;;;;;17.35;5.32;;;;;;;21.99;45.13;95028.91;4992458;28;20138;-81
2022/09/15 08:43:22;;;;;;;23.17;5.63;;;;;;;21.46;45.94;94927.72;4955257;28;20496;-82
2022/09/15 08:46:18;;;;;;;14.70;5.13;;;;;;;22.44;45.85;95062.75;4955242;28;20526;-82
2022/09/15 08:48:57;;;;;;;20.30;5.95;;;;;;;22.42;46.67;95049.63;4966163;28;20071;-82
2022/09/15 08:51:32;;;;;;;14.07;5.93;;;;;;;22.61;46.37;95070.50;4960669;28;20058;-81
2022/09/15 08:54:04;;;;;;;21.95;6.45;;;;;;;22.68;46.27;95067.94;4942653;28;20409;-81
2022/09/15 08:56:31;;;;;;;23.45;5.15;;;;;;;22.70;45.40;95062.97;4965156;28;20331;-82
2022/09/15 08:58:57;;;;;;;18.92;5.15;;;;;;;22.82;46.07;95064.81;4951308;28;20745;-81
2022/09/15 09:01:53;;;;;;;17.52;5.43;;;;;;;22.86;45.49;95057.56;4952352;28;20046;-81
2022/09/15 09:04:51;;;;;;;18.05;4.63;;;;;;;22.85;45.40;95031.66;4981915;28;20042;-81
2022/09/15 09:07:58;;;;;;;15.32;4.65;;;;;;;23.03;44.86;95051.75;4937234;28;20061;-81
2022/09/15 09:10:24;;;;;;;15.15;4.55;;;;;;;23.01;46.17;95048.59;4883875;29;20158;-80
2022/09/15 09:13:01;;;;;;;21.63;5.15;;;;;;;23.09;45.22;95043.00;4892858;29;20139;-80
2022/09/15 09:15:51;;;;;;;23.27;5.07;;;;;;;23.25;45.70;95031.31;4924862;28;20057;-81
2022/09/15 09:19:09;;;;;;;15.73;4.85;;;;;;;22.99;46.51;94980.56;4954596;28;20086;-80
2022/09/15 09:21:39;;;;;;;15.95;5.45;;;;;;;23.36;46.70;95018.75;4913275;28;20113;-80
2022/09/15 09:24:31;;;;;;;19.70;5.45;;;;;;;23.35;46.63;94993.63;4961794;28;20050;-80
2022/09/15 09:26:57;;;;;;;18.02;4.93;;;;;;;23.31;45.50;94981.97;4965405;28;20121;-81
2022/09/15 09:29:33;;;;;;;14.75;4.65;;;;;;;23.72;45.33;95031.06;4962284;28;21008;-80
2022/09/15 09:32:01;;;;;;;20.45;4.22;;;;;;;23.89;45.31;95019.72;4948508;28;20417;-80
2022/09/15 09:34:37;;;;;;;20.35;4.60;;;;;;;24.02;45.48;95009.50;4950832;28;20053;-80
2022/09/15 09:37:14;;;;;;;24.60;5.80;;;;;;;23.78;45.94;94954.59;4948820;28;20043;-80
2022/09/15 09:39:40;;;;;;;18.30;5.32;;;;;;;24.17;45.25;94984.19;4950526;28;20104;-80
2022/09/15 09:42:12;;;;;;;16.42;4.65;;;;;;;24.27;44.94;95005.28;4947448;28;20046;-81
2022/09/15 09:44:40;;;;;;;17.90;4.68;;;;;;;24.38;45.39;95014.34;4950895;28;20046;-80
2022/09/15 09:47:06;;;;;;;17.17;4.28;;;;;;;24.04;43.96;94963.84;4942994;28;20054;-80
2022/09/15 09:49:48;;;;;;;9.43;4.57;;;;;;;24.63;43.44;95009.28;4945734;28;20089;-80
2022/09/15 09:52:33;;;;;;;14.35;4.70;;;;;;;24.33;43.81;94946.91;4949998;28;20046;-80
2022/09/15 09:55:23;;;;;;;14.75;4.75;;;;;;;24.89;43.26;94994.88;4980979;28;20053;-80
2022/09/15 09:57:49;;;;;;;12.10;4.43;;;;;;;25.40;41.98;94943.56;4946641;28;20454;-80
2022/09/15 10:00:32;;;;;;;21.02;5.35;;;;;;;26.92;39.72;95002.97;4949236;28;20051;-80
2022/09/15 10:03:15;;;;;;;15.23;3.75;;;;;;;28.08;37.81;95010.66;4957147;28;20053;-80
2022/09/15 10:05:40;;;;;;;14.32;4.05;;;;;;;28.83;35.99;94964.25;4954297;28;20051;-80
2022/09/15 10:08:13;;;;;;;14.55;4.20;;;;;;;29.86;34.20;94981.66;4952898;28;20047;-81
2022/09/15 10:10:39;;;;;;;16.88;4.13;;;;;;;30.28;33.28;94957.91;4936926;28;20055;-80
2022/09/15 10:13:04;;;;;;;16.95;3.75;;;;;;;30.95;31.20;94935.31;4957190;28;20046;-80
2022/09/15 10:15:32;;;;;;;18.75;4.03;;;;;;;31.89;29.90;94985.75;4956835;28;20082;-81
2022/09/15 10:18:00;;;;;;;18.10;4.63;;;;;;;32.18;29.50;94931.25;4939736;28;20141;-80
2022/09/15 10:20:31;;;;;;;17.20;4.53;;;;;;;32.57;28.14;94925.06;4954258;28;20560;-80
2022/09/15 10:23:15;;;;;;;11.90;4.43;;;;;;;33.34;26.52;94976.91;4984456;28;20217;-80
2022/09/15 10:25:40;;;;;;;12.55;3.72;;;;;;;33.38;25.87;94902.66;4969452;28;20043;-80
2022/09/15 10:28:16;;;;;;;17.50;4.18;;;;;;;33.74;25.18;94928.16;4960215;28;20592;-80
2022/09/15 10:31:02;;;;;;;13.52;3.28;;;;;;;34.14;25.14;94966.50;4948896;28;20046;-80
2022/09/15 10:33:35;;;;;;;14.70;4.30;;;;;;;33.72;25.57;94967.06;4948900;28;20523;-80
2022/09/15 10:36:11;;;;;;;15.60;3.47;;;;;;;33.78;25.63;94966.59;4945830;28;20560;-80
2022/09/15 10:38:49;;;;;;;12.60;3.78;;;;;;;33.79;25.75;94948.88;4963170;28;20046;-80
2022/09/15 10:41:27;;;;;;;15.93;3.60;;;;;;;34.09;25.53;94952.06;4954829;28;20129;-80
2022/09/15 10:44:01;;;;;;;17.35;3.42;;;;;;;34.15;25.08;94960.56;4954980;28;20054;-81
2022/09/15 10:46:50;;;;;;;20.33;3.85;;;;;;;34.29;23.91;94948.47;4964078;28;20069;-80
2022/09/15 10:49:40;;;;;;;16.20;3.00;;;;;;;34.41;23.39;94948.53;4955078;28;20047;-80
2022/09/15 10:52:14;;;;;;;11.43;3.88;;;;;;;34.02;23.33;94946.75;4957125;28;20062;-80
2022/09/15 10:54:49;;;;;;;13.20;3.97;;;;;;;33.67;23.72;94948.31;4954345;28;20057;-80
2022/09/15 10:58:04;;;;;;;12.10;3.67;;;;;;;33.54;23.71;94927.41;4949225;28;20074;-80
2022/09/15 11:01:17;;;;;;;13.75;3.15;;;;;;;33.31;22.81;94929.09;4951808;28;20050;-80
2022/09/15 11:03:42;;;;;;;13.45;3.45;;;;;;;32.79;23.41;94941.94;4877617;29;20048;-81
2022/09/15 11:06:19;;;;;;;14.27;2.72;;;;;;;32.38;24.19;94929.31;4950013;28;20061;-81
2022/09/15 11:08:59;;;;;;;14.68;3.17;;;;;;;32.45;24.55;94925.66;4949969;28;20070;-81
2022/09/15 11:12:02;;;;;;;12.38;2.97;;;;;;;32.33;24.57;94921.56;4987448;28;20051;-81
2022/09/15 11:14:54;;;;;;;15.63;3.33;;;;;;;32.36;24.46;94915.22;4954039;28;20038;-80
2022/09/15 11:17:48;;;;;;;12.80;3.20;;;;;;;31.97;25.20;94921.38;4948532;28;20136;-81
2022/09/15 11:20:17;;;;;;;12.18;3.60;;;;;;;31.88;25.41;94918.41;4954953;28;20051;-80
2022/09/15 11:23:05;;;;;;;12.90;3.13;;;;;;;31.54;26.18;94912.25;4953409;28;20050;-81
2022/09/15 11:25:34;;;;;;;15.57;3.42;;;;;;;31.47;25.83;94909.59;4952683;28;20042;-81
2022/09/15 11:30:54;;;;;;;20.98;3.83;;;;;;;30.93;26.69;94877.44;5079416;27;21170;-79
2022/09/15 11:33:22;;;;;;;13.02;3.10;;;;;;;31.21;26.94;94900.97;5045734;28;20142;-80
2022/09/15 11:36:23;;;;;;;13.95;3.00;;;;;;;31.34;25.52;94899.22;5045836;28;20774;-80
2022/09/15 11:38:57;;;;;;;13.90;2.90;;;;;;;31.62;25.14;94900.00;4964295;28;20799;-80
2022/09/15 11:41:39;;;;;;;9.45;2.45;;;;;;;32.14;24.46;94901.09;5042662;28;20036;-80
2022/09/15 11:44:23;;;;;;;11.48;3.45;;;;;;;32.56;24.14;94890.56;5044977;28;20082;-80
2022/09/15 11:47:14;;;;;;;15.25;3.00;;;;;;;33.16;24.31;94881.13;5045849;28;20072;-80
2022/09/15 11:50:01;;;;;;;20.35;3.25;;;;;;;33.45;23.67;94892.28;5056832;28;20640;-80
2022/09/15 11:52:35;;;;;;;12.32;3.05;;;;;;;33.48;22.95;94868.66;5053507;28;20097;-80
2022/09/15 11:55:16;;;;;;;18.08;3.10;;;;;;;33.62;22.63;94882.84;5081654;28;20032;-81